createdAt,value
2018-08-13T00:01:28.826Z,56.23
2018-08-13T00:03:59.825Z,55.99
2018-08-13T00:06:30.577Z,56.88
2018-08-13T00:09:01.389Z,55.86
2018-08-13T00:11:31.977Z,55.62
2018-08-13T00:14:02.736Z,55.90
2018-08-13T00:16:33.340Z,56.19
2018-08-13T00:19:04.093Z,56.30
2018-08-13T00:21:34.738Z,56.73
2018-08-13T00:24:05.592Z,56.40
2018-08-13T00:26:36.216Z,55.70
2018-08-13T00:29:07.170Z,56.22
2018-08-13T00:31:37.785Z,56.32
2018-08-13T00:34:08.403Z,56.07
2018-08-13T00:36:39.073Z,55.99
2018-08-13T00:39:12.985Z,56.12
2018-08-13T00:41:43.689Z,56.56
2018-08-13T00:44:14.489Z,55.34
2018-08-13T00:46:45.241Z,55.58
2018-08-13T00:49:16.025Z,56.43
2018-08-13T00:51:46.665Z,56.73
2018-08-13T00:54:17.338Z,57.04
2018-08-13T00:56:48.072Z,57.45
2018-08-13T00:59:18.828Z,57.13
2018-08-13T01:01:49.418Z,57.26
2018-08-13T01:04:20.525Z,57.91
2018-08-13T01:06:51.201Z,58.04
2018-08-13T01:09:22.062Z,58.34
2018-08-13T01:11:52.684Z,57.84
2018-08-13T01:14:23.489Z,57.81
2018-08-13T01:16:54.317Z,58.71
2018-08-13T01:19:25.189Z,58.11
2018-08-13T01:21:55.954Z,59.46
2018-08-13T01:24:26.637Z,59.45
2018-08-13T01:26:57.293Z,60.60
2018-08-13T01:29:28.065Z,60.08
2018-08-13T01:31:58.764Z,62.50
2018-08-13T01:34:29.449Z,61.61
2018-08-13T01:37:00.122Z,62.08
2018-08-13T01:39:31.217Z,61.95
2018-08-13T01:42:01.953Z,60.57
2018-08-13T01:44:32.804Z,60.82
2018-08-13T01:47:03.477Z,60.19
2018-08-13T01:49:34.509Z,59.39
2018-08-13T01:52:05.029Z,60.80
2018-08-13T01:54:35.672Z,60.22
2018-08-13T01:57:06.345Z,61.30
2018-08-13T01:59:37.341Z,60.64
2018-08-13T02:02:08.121Z,60.75
2018-08-13T02:04:39.096Z,60.83
2018-08-13T02:07:09.736Z,61.44
2018-08-13T02:09:41.612Z,60.68
2018-08-13T02:12:13.192Z,60.37
2018-08-13T02:14:44.120Z,60.43
2018-08-13T02:17:14.659Z,60.37
2018-08-13T02:19:46.036Z,60.43
2018-08-13T02:22:16.632Z,60.30
2018-08-13T02:24:47.356Z,60.26
2018-08-13T02:27:17.980Z,60.21
2018-08-13T02:29:48.842Z,60.95
2018-08-13T02:32:19.544Z,60.84
2018-08-13T02:34:50.389Z,61.33
2018-08-13T02:37:21.090Z,61.84
2018-08-13T02:39:51.784Z,60.62
2018-08-13T02:42:22.445Z,61.15
2018-08-13T02:44:53.316Z,61.51
2018-08-13T02:47:23.944Z,61.39
2018-08-13T02:49:54.836Z,61.97
2018-08-13T02:52:25.505Z,61.21
2018-08-13T02:54:58.699Z,62.11
2018-08-13T02:57:29.276Z,62.08
2018-08-13T02:59:59.896Z,61.91
2018-08-13T03:02:30.525Z,61.53
2018-08-13T03:05:01.392Z,61.23
2018-08-13T03:07:31.998Z,61.01
2018-08-13T03:10:02.861Z,60.32
2018-08-13T03:12:33.501Z,60.67
2018-08-13T03:15:04.493Z,60.58
2018-08-13T03:17:35.088Z,60.87
2018-08-13T03:20:07.010Z,60.56
2018-08-13T03:22:37.757Z,61.43
2018-08-13T03:25:10.753Z,61.35
2018-08-13T03:27:41.404Z,60.83
2018-08-13T03:30:13.948Z,60.93
2018-08-13T03:32:44.617Z,61.47
2018-08-13T03:35:15.418Z,61.35
2018-08-13T03:37:46.033Z,61.56
2018-08-13T03:40:16.732Z,61.22
2018-08-13T03:42:47.360Z,61.02
2018-08-13T03:45:18.036Z,61.56
2018-08-13T03:47:48.755Z,62.31
2018-08-13T03:50:19.644Z,61.85
2018-08-13T03:52:50.265Z,62.06
2018-08-13T03:55:21.227Z,61.02
2018-08-13T03:57:52.021Z,60.98
2018-08-13T04:00:22.830Z,61.65
2018-08-13T04:02:53.412Z,61.53
2018-08-13T04:05:23.944Z,61.78
2018-08-13T04:07:54.727Z,61.38
2018-08-13T04:10:25.345Z,60.60
2018-08-13T04:12:55.916Z,60.75
2018-08-13T04:15:26.905Z,60.43
2018-08-13T04:17:57.549Z,59.41
2018-08-13T04:20:28.157Z,60.33
2018-08-13T04:22:58.878Z,59.69
2018-08-13T04:25:29.576Z,58.70
2018-08-13T04:28:00.173Z,58.61
2018-08-13T04:30:31.263Z,58.34
2018-08-13T04:33:03.076Z,58.23
2018-08-13T04:35:33.810Z,58.47
2018-08-13T04:38:04.524Z,58.33
2018-08-13T04:40:35.297Z,58.49
2018-08-13T04:43:06.022Z,56.89
2018-08-13T04:45:36.971Z,51.70
2018-08-13T04:48:07.739Z,51.42
2018-08-13T04:50:38.545Z,50.27
2018-08-13T04:53:09.100Z,49.96
2018-08-13T04:55:39.620Z,50.31
2018-08-13T04:58:10.384Z,50.78
2018-08-13T05:00:41.124Z,48.62
2018-08-13T05:03:11.887Z,49.15
2018-08-13T05:05:43.784Z,49.04
2018-08-13T05:08:14.456Z,48.24
2018-08-13T05:10:45.388Z,48.17
2018-08-13T05:13:16.150Z,48.64
2018-08-13T05:15:47.101Z,47.29
2018-08-13T05:18:17.834Z,48.79
2018-08-13T05:20:48.681Z,49.64
2018-08-13T05:23:19.136Z,48.67
2018-08-13T05:25:49.743Z,49.27
2018-08-13T05:28:20.357Z,47.30
2018-08-13T05:30:51.116Z,46.31
2018-08-13T05:33:21.960Z,44.84
2018-08-13T05:35:52.793Z,44.71
2018-08-13T05:38:23.483Z,45.20
2018-08-13T05:40:54.267Z,46.32
2018-08-13T05:43:24.944Z,45.56
2018-08-13T05:45:55.962Z,45.91
2018-08-13T05:48:27.505Z,47.22
2018-08-13T05:50:58.173Z,46.18
2018-08-13T05:53:29.074Z,46.63
2018-08-13T05:55:59.866Z,44.55
2018-08-13T05:58:30.482Z,43.82
2018-08-13T06:01:01.349Z,43.14
2018-08-13T06:03:32.360Z,42.20
2018-08-13T06:06:03.108Z,41.31
2018-08-13T06:08:33.756Z,43.92
2018-08-13T06:11:04.589Z,43.93
2018-08-13T06:13:35.247Z,45.04
2018-08-13T06:16:05.916Z,46.32
2018-08-13T06:18:36.561Z,45.28
2018-08-13T06:21:07.473Z,44.38
2018-08-13T06:23:38.069Z,43.52
2018-08-13T06:26:09.176Z,42.53
2018-08-13T06:28:39.896Z,41.78
2018-08-13T06:31:10.860Z,42.70
2018-08-13T06:33:41.624Z,43.42
2018-08-13T06:36:12.627Z,43.81
2018-08-13T06:38:43.288Z,41.36
2018-08-13T06:41:14.136Z,41.08
2018-08-13T06:43:44.905Z,41.41
2018-08-13T06:46:15.737Z,41.11
2018-08-13T06:48:46.360Z,40.16
2018-08-13T06:51:17.111Z,41.19
2018-08-13T06:53:47.778Z,42.40
2018-08-13T06:56:18.870Z,40.93
2018-08-13T06:58:49.572Z,40.93
2018-08-13T07:01:20.248Z,38.48
2018-08-13T07:03:51.038Z,38.76
2018-08-13T07:06:21.954Z,39.76
2018-08-13T07:08:52.693Z,39.64
2018-08-13T07:11:23.579Z,40.86
2018-08-13T07:13:55.936Z,39.24
2018-08-13T07:16:26.631Z,38.03
2018-08-13T07:18:57.353Z,38.12
2018-08-13T07:21:28.152Z,38.70
2018-08-13T07:23:58.833Z,36.34
2018-08-13T07:26:29.563Z,36.86
2018-08-13T07:29:00.322Z,37.88
2018-08-13T07:31:31.233Z,37.32
2018-08-13T07:34:01.946Z,36.08
2018-08-13T07:36:32.717Z,35.19
2018-08-13T07:39:03.771Z,35.29
2018-08-13T07:41:34.480Z,34.85
2018-08-13T07:44:05.945Z,34.20
2018-08-13T07:46:36.567Z,35.67
2018-08-13T07:49:07.370Z,34.88
2018-08-13T07:51:38.287Z,36.46
2018-08-13T07:54:08.797Z,34.51
2018-08-13T07:56:40.600Z,31.92
2018-08-13T07:59:11.534Z,32.66
2018-08-13T08:01:42.431Z,34.66
2018-08-13T08:04:13.233Z,33.45
2018-08-13T08:06:43.942Z,32.93
2018-08-13T08:09:14.551Z,33.83
2018-08-13T08:11:45.485Z,33.56
2018-08-13T08:14:16.150Z,34.67
2018-08-13T08:16:47.054Z,31.93
2018-08-13T08:19:17.765Z,32.00
2018-08-13T08:21:48.525Z,32.95
2018-08-13T08:24:19.117Z,34.18
2018-08-13T08:26:49.873Z,34.49
2018-08-13T08:29:20.881Z,32.54
2018-08-13T08:31:51.492Z,33.21
2018-08-13T08:34:22.202Z,32.60
2018-08-13T08:36:52.977Z,32.66
2018-08-13T08:39:23.722Z,33.75
2018-08-13T08:41:54.778Z,33.12
2018-08-13T08:44:25.461Z,32.30
2018-08-13T08:46:56.133Z,31.08
2018-08-13T08:49:26.769Z,31.36
2018-08-13T08:51:57.653Z,32.06
2018-08-13T08:54:28.317Z,32.75
2018-08-13T08:56:59.089Z,32.16
2018-08-13T08:59:29.769Z,31.11
2018-08-13T09:02:00.647Z,31.17
2018-08-13T09:04:31.161Z,30.11
2018-08-13T09:07:02.019Z,29.35
2018-08-13T09:09:32.781Z,26.81
2018-08-13T09:12:03.476Z,26.83
2018-08-13T09:14:34.201Z,27.62
2018-08-13T09:17:04.981Z,27.40
2018-08-13T09:19:52.030Z,27.62
2018-08-13T09:23:42.444Z,26.35
2018-08-13T09:26:29.145Z,26.38
2018-08-13T09:29:16.270Z,24.90
2018-08-13T09:32:31.484Z,25.97
2018-08-13T09:35:34.361Z,25.76
2018-08-13T09:38:05.205Z,26.54
2018-08-13T09:40:35.997Z,25.69
2018-08-13T09:43:06.801Z,27.00
2018-08-13T09:45:37.716Z,26.02
2018-08-13T09:48:08.757Z,25.58
2018-08-13T09:50:39.484Z,26.50
2018-08-13T09:53:09.949Z,24.73
2018-08-13T09:55:40.820Z,26.70
2018-08-13T09:58:12.153Z,25.43
2018-08-13T10:00:47.949Z,25.78
2018-08-13T10:03:18.356Z,27.50
2018-08-13T10:05:48.997Z,26.67
2018-08-13T10:08:19.620Z,26.70
2018-08-13T10:10:50.534Z,27.61
2018-08-13T10:13:21.333Z,25.72
2018-08-13T10:15:52.012Z,25.71
2018-08-13T10:18:22.688Z,25.35
2018-08-13T10:20:53.622Z,23.21
2018-08-13T10:23:24.265Z,24.45
2018-08-13T10:25:55.145Z,23.01
2018-08-13T10:28:25.846Z,24.12
2018-08-13T10:30:56.628Z,24.04
2018-08-13T10:33:27.270Z,24.57
2018-08-13T10:35:58.133Z,25.25
2018-08-13T10:38:28.716Z,24.62
2018-08-13T10:40:59.460Z,23.82
2018-08-13T10:43:30.241Z,25.19
2018-08-13T10:46:00.881Z,24.13
2018-08-13T10:48:31.552Z,25.93
2018-08-13T10:51:02.301Z,25.08
2018-08-13T10:53:33.129Z,26.08
2018-08-13T10:56:03.962Z,26.15
2018-08-13T10:58:34.745Z,23.95
2018-08-13T11:01:05.568Z,24.14
2018-08-13T11:03:36.381Z,21.85
2018-08-13T11:06:07.125Z,23.23
2018-08-13T11:08:37.633Z,22.87
2018-08-13T11:11:08.562Z,25.01
2018-08-13T11:13:39.140Z,25.00
2018-08-13T11:16:09.916Z,23.64
2018-08-13T11:18:40.613Z,25.17
2018-08-13T11:21:11.493Z,24.59
2018-08-13T11:23:42.169Z,25.59
2018-08-13T11:26:12.858Z,24.54
2018-08-13T11:28:43.316Z,25.42
2018-08-13T11:31:14.061Z,24.44
2018-08-13T11:33:44.676Z,23.24
2018-08-13T11:36:15.434Z,25.03
2018-08-13T11:38:46.173Z,24.47
2018-08-13T11:41:16.969Z,23.15
2018-08-13T11:43:47.581Z,23.39
2018-08-13T11:46:18.546Z,22.82
2018-08-13T11:48:49.237Z,24.39
2018-08-13T11:51:20.037Z,24.96
2018-08-13T11:53:50.616Z,21.88
2018-08-13T11:56:21.435Z,21.80
2018-08-13T11:58:52.020Z,22.94
2018-08-13T12:01:22.882Z,24.72
2018-08-13T12:03:54.213Z,23.63
2018-08-13T12:06:24.954Z,23.29
2018-08-13T12:08:55.632Z,23.20
2018-08-13T12:11:26.490Z,22.32
2018-08-13T12:13:57.173Z,18.64
2018-08-13T12:16:28.050Z,17.51
2018-08-13T12:18:58.740Z,18.22
2018-08-13T12:21:29.589Z,19.59
2018-08-13T12:24:00.133Z,17.23
2018-08-13T12:26:31.009Z,20.01
2018-08-13T12:29:01.696Z,18.15
2018-08-13T12:31:32.546Z,20.12
2018-08-13T12:34:03.302Z,19.66
2018-08-13T12:36:34.669Z,19.80
2018-08-13T12:39:09.022Z,17.38
2018-08-13T12:41:39.978Z,18.17
2018-08-13T12:44:10.801Z,19.16
2018-08-13T12:46:41.653Z,19.54
2018-08-13T12:49:12.391Z,19.95
2018-08-13T12:51:43.133Z,20.07
2018-08-13T12:54:13.765Z,18.92
2018-08-13T12:56:44.642Z,20.68
2018-08-13T12:59:15.348Z,21.00
2018-08-13T13:01:46.214Z,19.30
2018-08-13T13:04:16.844Z,19.53
2018-08-13T13:06:47.825Z,18.29
2018-08-13T13:09:18.462Z,18.37
2018-08-13T13:11:49.257Z,20.19
2018-08-13T13:14:20.018Z,20.77
2018-08-13T13:16:50.777Z,20.25
2018-08-13T13:19:21.458Z,20.86
2018-08-13T13:21:52.628Z,19.56
2018-08-13T13:24:23.197Z,19.48
2018-08-13T13:26:53.921Z,17.71
2018-08-13T13:29:24.576Z,18.03
2018-08-13T13:31:55.349Z,19.34
2018-08-13T13:34:26.001Z,20.41
2018-08-13T13:36:56.349Z,19.09
2018-08-13T13:39:27.024Z,21.30
2018-08-13T13:41:58.093Z,20.39
2018-08-13T13:44:28.352Z,20.33
2018-08-13T13:46:59.040Z,20.22
2018-08-13T13:49:29.734Z,19.97
2018-08-13T13:52:00.501Z,20.74
2018-08-13T13:54:30.993Z,21.28
2018-08-13T13:57:01.906Z,20.72
2018-08-13T13:59:32.278Z,21.36
2018-08-13T14:02:02.880Z,20.78
2018-08-13T14:04:33.162Z,21.38
2018-08-13T14:07:03.608Z,22.82
2018-08-13T14:09:34.192Z,20.85
2018-08-13T14:12:04.822Z,22.20
2018-08-13T14:14:36.017Z,21.28
2018-08-13T14:17:06.747Z,21.50
2018-08-13T14:19:37.462Z,19.87
2018-08-13T14:22:08.272Z,22.92
2018-08-13T14:24:39.072Z,21.91
2018-08-13T14:27:09.457Z,21.23
2018-08-13T14:29:40.118Z,22.30
2018-08-13T14:32:10.506Z,23.31
2018-08-13T14:34:41.357Z,24.68
2018-08-13T14:37:12.084Z,24.79
2018-08-13T14:39:42.990Z,23.31
2018-08-13T14:42:13.593Z,23.08
2018-08-13T14:44:44.453Z,22.48
2018-08-13T14:47:14.916Z,22.00
2018-08-13T14:49:45.705Z,21.93
2018-08-13T14:52:16.262Z,24.95
2018-08-13T14:54:47.169Z,24.08
2018-08-13T14:57:17.775Z,23.67
2018-08-13T14:59:48.593Z,23.48
2018-08-13T15:02:19.237Z,26.05
2018-08-13T15:04:49.909Z,25.96
2018-08-13T15:07:20.248Z,25.09
2018-08-13T15:09:50.938Z,24.75
2018-08-13T15:12:21.637Z,25.49
2018-08-13T15:14:52.421Z,25.50
2018-08-13T15:17:23.104Z,26.93
2018-08-13T15:19:53.784Z,26.35
2018-08-13T15:22:24.523Z,28.49
2018-08-13T15:24:55.192Z,29.37
2018-08-13T15:27:25.870Z,28.36
2018-08-13T15:29:56.562Z,29.42
2018-08-13T15:32:26.921Z,28.52
2018-08-13T15:34:57.381Z,27.53
2018-08-13T15:37:27.747Z,25.58
2018-08-13T15:39:58.208Z,26.60
2018-08-13T15:42:28.702Z,28.05
2018-08-13T15:44:59.617Z,29.48
2018-08-13T15:47:29.908Z,29.11
2018-08-13T15:50:00.238Z,28.51
2018-08-13T15:52:30.606Z,28.11
2018-08-13T15:55:01.129Z,28.79
2018-08-13T15:57:31.642Z,28.82
2018-08-13T16:00:02.034Z,28.30
2018-08-13T16:02:32.462Z,27.99
2018-08-13T16:05:02.886Z,26.39
2018-08-13T16:07:33.200Z,27.22
2018-08-13T16:10:04.099Z,25.82
2018-08-13T16:12:34.390Z,27.36
2018-08-13T16:15:05.709Z,27.38
2018-08-13T16:17:36.369Z,27.26
2018-08-13T16:20:12.304Z,26.86
2018-08-13T16:22:43.044Z,26.20
2018-08-13T16:25:13.617Z,27.96
2018-08-13T16:27:44.757Z,26.20
2018-08-13T16:30:23.097Z,27.51
2018-08-13T16:32:53.757Z,26.55
2018-08-13T16:35:25.409Z,26.18
2018-08-13T16:37:56.410Z,26.51
2018-08-13T16:40:27.137Z,26.62
2018-08-13T16:42:57.850Z,26.51
2018-08-13T16:45:28.598Z,27.10
2018-08-13T16:47:59.350Z,27.71
2018-08-13T16:50:33.505Z,27.03
2018-08-13T16:53:04.208Z,27.67
2018-08-13T16:55:35.197Z,27.53
2018-08-13T16:58:05.650Z,28.44
2018-08-13T17:00:36.309Z,28.55
2018-08-13T17:03:06.858Z,29.22
2018-08-13T17:05:37.280Z,29.93
2018-08-13T17:08:07.791Z,29.98
2018-08-13T17:10:38.184Z,30.50
2018-08-13T17:13:08.609Z,29.43
2018-08-13T17:15:39.194Z,30.78
2018-08-13T17:18:09.536Z,30.02
2018-08-13T17:20:42.273Z,30.40
2018-08-13T17:23:12.640Z,36.37
2018-08-13T17:25:43.241Z,38.29
2018-08-13T17:28:13.671Z,38.81
2018-08-13T17:30:44.161Z,38.27
2018-08-13T17:33:14.578Z,37.57
2018-08-13T17:35:45.209Z,35.35
2018-08-13T17:38:15.564Z,34.46
2018-08-13T17:40:46.031Z,34.95
2018-08-13T17:43:16.536Z,35.00
2018-08-13T17:45:46.932Z,34.59
2018-08-13T17:48:17.314Z,34.07
2018-08-13T17:50:47.729Z,33.14
2018-08-13T17:53:18.142Z,34.23
2018-08-13T17:55:48.964Z,34.54
2018-08-13T17:58:19.345Z,34.06
2018-08-13T18:00:50.022Z,35.16
2018-08-13T18:03:20.436Z,36.14
2018-08-13T18:05:50.865Z,34.64
2018-08-13T18:08:21.137Z,35.43
2018-08-13T18:10:51.597Z,35.28
2018-08-13T18:13:21.909Z,35.31
2018-08-13T18:15:52.167Z,35.91
2018-08-13T18:18:22.595Z,36.13
2018-08-13T18:20:52.892Z,36.25
2018-08-13T18:23:23.189Z,35.35
2018-08-13T18:25:53.973Z,35.78
2018-08-13T18:28:24.385Z,36.21
2018-08-13T18:30:55.081Z,36.21
2018-08-13T18:33:25.396Z,36.51
2018-08-13T18:35:55.805Z,36.49
2018-08-13T18:38:26.133Z,37.91
2018-08-13T18:40:56.413Z,38.18
2018-08-13T18:43:26.853Z,38.04
2018-08-13T18:45:57.165Z,38.60
2018-08-13T18:48:27.511Z,38.34
2018-08-13T18:50:57.809Z,39.24
2018-08-13T18:53:28.324Z,39.93
2018-08-13T18:55:58.714Z,39.30
2018-08-13T18:58:29.062Z,40.02
2018-08-13T19:00:59.853Z,40.62
2018-08-13T19:03:30.220Z,40.84
2018-08-13T19:06:00.581Z,40.16
2018-08-13T19:08:30.893Z,40.16
2018-08-13T19:11:01.563Z,40.77
2018-08-13T19:13:31.856Z,40.67
2018-08-13T19:16:02.399Z,40.45
2018-08-13T19:18:32.717Z,40.77
2018-08-13T19:21:02.965Z,41.49
2018-08-13T19:23:33.302Z,41.50
2018-08-13T19:26:03.769Z,41.78
2018-08-13T19:28:34.082Z,42.06
2018-08-13T19:31:04.429Z,41.73
2018-08-13T19:33:34.991Z,42.28
2018-08-13T19:36:05.375Z,42.39
2018-08-13T19:38:35.916Z,46.45
2018-08-13T19:41:06.329Z,47.63
2018-08-13T19:43:36.929Z,47.91
2018-08-13T19:46:07.925Z,47.84
2018-08-13T19:48:38.345Z,47.67
2018-08-13T19:51:08.665Z,47.69
2018-08-13T19:53:39.058Z,48.13
2018-08-13T19:56:09.941Z,49.02
2018-08-13T19:58:40.818Z,51.51
2018-08-13T20:01:11.307Z,51.46
2018-08-13T20:03:41.565Z,51.24
2018-08-13T20:06:11.945Z,51.05
2018-08-13T20:08:42.220Z,50.14
2018-08-13T20:11:12.582Z,49.79
2018-08-13T20:13:43.001Z,51.23
2018-08-13T20:16:13.598Z,50.25
2018-08-13T20:18:44.094Z,50.07
2018-08-13T20:21:14.575Z,50.84
2018-08-13T20:23:44.832Z,51.64
2018-08-13T20:26:15.181Z,52.37
2018-08-13T20:28:45.473Z,52.85
2018-08-13T20:31:15.821Z,52.33
2018-08-13T20:33:46.246Z,51.75
2018-08-13T20:36:16.897Z,51.58
2018-08-13T20:38:47.373Z,50.20
2018-08-13T20:41:17.612Z,48.78
2018-08-13T20:43:47.858Z,48.73
2018-08-13T20:46:18.364Z,49.17
2018-08-13T20:48:48.813Z,48.83
2018-08-13T20:51:19.206Z,48.02
2018-08-13T20:53:49.529Z,46.73
2018-08-13T20:56:19.879Z,45.50
2018-08-13T20:58:50.488Z,46.61
2018-08-13T21:01:20.823Z,45.22
2018-08-13T21:03:51.166Z,43.82
2018-08-13T21:06:21.636Z,43.25
2018-08-13T21:08:51.977Z,43.65
2018-08-13T21:11:22.522Z,43.06
2018-08-13T21:13:52.875Z,42.89
2018-08-13T21:16:23.569Z,42.63
2018-08-13T21:18:53.883Z,43.01
2018-08-13T21:21:24.345Z,42.00
2018-08-13T21:23:54.658Z,42.80
2018-08-13T21:26:25.072Z,43.42
2018-08-13T21:28:55.910Z,43.00
2018-08-13T21:31:26.383Z,43.77
2018-08-13T21:33:57.020Z,43.68
2018-08-13T21:36:27.372Z,43.71
2018-08-13T21:38:57.756Z,42.94
2018-08-13T21:41:28.066Z,43.26
2018-08-13T21:43:58.629Z,43.01
2018-08-13T21:46:28.956Z,43.57
2018-08-13T21:48:59.464Z,43.32
2018-08-13T21:51:29.865Z,43.12
2018-08-13T21:54:00.209Z,43.83
2018-08-13T21:56:30.549Z,43.21
2018-08-13T21:59:00.802Z,44.53
2018-08-13T22:01:36.277Z,44.82
2018-08-13T22:04:06.570Z,44.98
2018-08-13T22:06:36.881Z,45.37
2018-08-13T22:09:09.993Z,45.75
2018-08-13T22:11:40.463Z,44.95
2018-08-13T22:14:11.451Z,45.35
2018-08-13T22:16:41.841Z,45.94
2018-08-13T22:19:12.282Z,46.02
2018-08-13T22:21:42.594Z,46.13
2018-08-13T22:24:29.457Z,46.17
2018-08-13T22:26:59.708Z,47.44
2018-08-13T22:29:30.153Z,47.73
2018-08-13T22:32:00.462Z,47.54
2018-08-13T22:34:31.000Z,46.74
2018-08-13T22:37:01.435Z,47.20
2018-08-13T22:39:31.822Z,48.17
2018-08-13T22:42:02.193Z,48.34
2018-08-13T22:44:32.870Z,48.50
2018-08-13T22:47:03.369Z,48.12
2018-08-13T22:49:33.872Z,47.70
2018-08-13T22:52:04.379Z,48.52
2018-08-13T22:54:34.741Z,48.69
2018-08-13T22:57:05.173Z,48.13
2018-08-13T22:59:35.532Z,48.64
2018-08-13T23:02:05.975Z,48.04
2018-08-13T23:04:36.381Z,48.95
2018-08-13T23:07:07.152Z,49.34
2018-08-13T23:09:37.789Z,49.82
2018-08-13T23:12:10.692Z,48.73
2018-08-13T23:14:41.122Z,48.63
2018-08-13T23:17:11.452Z,47.74
2018-08-13T23:19:41.786Z,47.85
2018-08-13T23:22:21.157Z,49.51
2018-08-13T23:24:51.561Z,49.17
2018-08-13T23:27:21.828Z,49.22
2018-08-13T23:29:52.339Z,50.05
2018-08-13T23:32:22.677Z,50.40
2018-08-13T23:34:53.274Z,49.80
2018-08-13T23:37:23.600Z,50.91
2018-08-13T23:39:54.016Z,50.31
2018-08-13T23:42:24.361Z,49.97
2018-08-13T23:44:54.687Z,50.93
2018-08-13T23:47:25.021Z,50.77
2018-08-13T23:49:55.448Z,51.15
2018-08-13T23:52:26.137Z,50.43
2018-08-13T23:54:56.828Z,50.69
2018-08-13T23:57:27.244Z,50.87
2018-08-13T23:59:57.962Z,50.82
